FGSL

Malabo Airport

Malabo, Equatorial Guinea
METAR FGSL 110100Z 24002KT 9999 FEW010 24/22 Q1013 NOSIG
Observed Flight Rules
Dec-11 @ 01:00 UTC (4 hours ago) Visual Flight Rules
Wind Visibility Clouds
240° at 2 knots 10,000+ meters
  • Few at 1,000' AGL
Temperatures Readings
Current 24°C / 75°F
Dewpoint 22°C / 72°F
Humidity 89%
Altimeter 29.91" Hg
Pressure 1013 hPa
Elevation 56
METAR FGSL 110100Z 24002KT 9999 FEW010 24/22 Q1013 NOSIG
Observed Flight Rules
Dec-11 @ 01:00 UTC
(4 hours ago)
VFR
Wind Visibility
240° at 2 knots 10,000+ meters
Clouds
  • Few at 1,000' AGL
Temperature Dewpoint
24°C / 75°F 22°C / 72°F
Humidity Altimeter Pressure
89% 29.91" Hg 1013 hPa